createdAt,value
2022-09-28T00:01:44.554Z,8.10
2022-09-28T00:04:14.725Z,8.10
2022-09-28T00:06:44.789Z,8.20
2022-09-28T00:09:16.610Z,8.20
2022-09-28T00:11:47.000Z,8.20
2022-09-28T00:14:17.353Z,8.20
2022-09-28T00:16:48.533Z,8.20
2022-09-28T00:19:20.469Z,8.20
2022-09-28T00:21:50.433Z,8.20
2022-09-28T00:24:29.646Z,8.10
2022-09-28T00:27:02.475Z,8.10
2022-09-28T00:29:34.114Z,8.10
2022-09-28T00:32:08.282Z,8.10
2022-09-28T00:34:42.398Z,8.10
2022-09-28T00:37:14.269Z,8.10
2022-09-28T00:39:45.980Z,8.10
2022-09-28T00:42:18.661Z,8.10
2022-09-28T00:44:52.541Z,8.10
2022-09-28T00:47:45.387Z,8.10
2022-09-28T00:50:20.793Z,8.10
2022-09-28T00:52:54.342Z,8.10
2022-09-28T00:55:30.913Z,8.00
2022-09-28T00:58:04.734Z,8.10
2022-09-28T01:00:34.604Z,8.00
2022-09-28T01:03:05.180Z,8.00
2022-09-28T01:05:35.495Z,8.10
2022-09-28T01:08:04.299Z,8.10
2022-09-28T01:10:35.839Z,8.10
2022-09-28T01:13:05.968Z,8.10
2022-09-28T01:15:49.928Z,8.10
2022-09-28T01:18:26.772Z,8.10
2022-09-28T01:21:02.126Z,8.00
2022-09-28T01:23:51.948Z,8.10
2022-09-28T01:26:46.939Z,8.10
2022-09-28T01:29:20.321Z,8.10
2022-09-28T01:31:53.047Z,8.10
2022-09-28T01:34:29.987Z,8.10
2022-09-28T01:37:04.332Z,8.10
2022-09-28T01:39:38.549Z,8.10
2022-09-28T01:42:14.287Z,8.10
2022-09-28T01:44:48.503Z,8.20
2022-09-28T01:47:23.323Z,8.20
2022-09-28T01:49:59.141Z,8.20
2022-09-28T01:52:35.739Z,8.20
2022-09-28T01:55:10.912Z,8.20
2022-09-28T01:57:48.277Z,8.20
2022-09-28T02:00:20.849Z,8.20
2022-09-28T02:02:56.478Z,8.20
2022-09-28T02:05:31.004Z,8.20
2022-09-28T02:08:04.790Z,8.20
2022-09-28T02:10:43.473Z,8.20
2022-09-28T02:13:17.525Z,8.20
2022-09-28T02:15:52.058Z,8.30
2022-09-28T02:18:21.753Z,8.30
2022-09-28T02:21:00.391Z,8.20
2022-09-28T02:23:34.144Z,8.30
2022-09-28T02:26:06.072Z,8.30
2022-09-28T02:28:37.849Z,8.30
2022-09-28T02:31:07.674Z,8.30
2022-09-28T02:33:40.668Z,8.40
2022-09-28T02:36:11.097Z,8.40
2022-09-28T02:38:41.271Z,8.40
2022-09-28T02:41:18.314Z,8.50
2022-09-28T02:43:57.242Z,8.50
2022-09-28T02:46:33.356Z,8.60
2022-09-28T02:49:22.172Z,8.60
2022-09-28T02:52:02.810Z,8.60
2022-09-28T02:55:02.671Z,8.60
2022-09-28T02:57:42.473Z,8.70
2022-09-28T03:00:17.466Z,8.60
2022-09-28T03:02:59.875Z,8.70
2022-09-28T03:05:40.934Z,8.80
2022-09-28T03:08:17.330Z,8.80
2022-09-28T03:10:49.716Z,8.80
2022-09-28T03:13:20.536Z,8.80
2022-09-28T03:15:52.518Z,8.80
2022-09-28T03:18:22.832Z,8.90
2022-09-28T03:20:52.842Z,8.80
2022-09-28T03:23:25.299Z,8.80
2022-09-28T03:25:53.614Z,8.80
2022-09-28T03:28:23.439Z,8.60
2022-09-28T03:30:55.172Z,8.60
2022-09-28T03:33:25.427Z,8.60
2022-09-28T03:35:55.282Z,8.50
2022-09-28T03:38:25.246Z,8.50
2022-09-28T03:40:59.109Z,8.50
2022-09-28T03:43:31.805Z,8.40
2022-09-28T03:46:04.237Z,8.30
2022-09-28T03:48:37.406Z,8.30
2022-09-28T03:51:09.939Z,8.20
2022-09-28T03:53:40.284Z,8.20
2022-09-28T03:56:14.825Z,8.30
2022-09-28T03:58:45.962Z,8.20
2022-09-28T04:01:19.065Z,8.20
2022-09-28T04:03:54.155Z,8.20
2022-09-28T04:06:25.124Z,8.20
2022-09-28T04:08:55.656Z,8.20
2022-09-28T04:11:25.569Z,8.10
2022-09-28T04:13:55.669Z,8.10
2022-09-28T04:16:27.369Z,8.10
2022-09-28T04:18:58.536Z,8.20
2022-09-28T04:21:28.611Z,8.10
2022-09-28T04:23:59.419Z,8.10
2022-09-28T04:26:30.492Z,8.00
2022-09-28T04:29:18.140Z,8.00
2022-09-28T04:31:51.771Z,8.00
2022-09-28T04:34:23.452Z,8.00
2022-09-28T04:36:53.356Z,8.00
2022-09-28T04:39:23.413Z,8.00
2022-09-28T04:41:53.117Z,8.00
2022-09-28T04:44:23.126Z,8.10
2022-09-28T04:47:01.715Z,8.10
2022-09-28T04:49:35.385Z,8.10
2022-09-28T04:52:05.276Z,8.10
2022-09-28T04:54:35.164Z,8.10
2022-09-28T04:57:06.155Z,8.00
2022-09-28T04:59:37.684Z,8.00
2022-09-28T05:02:09.208Z,8.00
2022-09-28T05:04:39.053Z,7.90
2022-09-28T05:07:14.490Z,8.00
2022-09-28T05:09:44.381Z,8.00
2022-09-28T05:12:14.235Z,8.00
2022-09-28T05:14:48.174Z,8.00
2022-09-28T05:17:19.455Z,7.90
2022-09-28T05:19:49.593Z,7.90
2022-09-28T05:22:19.626Z,7.90
2022-09-28T05:24:49.649Z,8.00
2022-09-28T05:27:19.652Z,8.00
2022-09-28T05:29:49.262Z,8.10
2022-09-28T05:32:20.720Z,8.00
2022-09-28T05:34:50.731Z,8.00
2022-09-28T05:37:20.637Z,7.90
2022-09-28T05:39:50.411Z,8.00
2022-09-28T05:42:20.215Z,8.00
2022-09-28T05:44:50.185Z,8.00
2022-09-28T05:47:22.597Z,7.90
2022-09-28T05:49:50.538Z,7.90
2022-09-28T05:52:22.943Z,7.90
2022-09-28T05:54:54.045Z,8.00
2022-09-28T05:57:24.552Z,7.90
2022-09-28T05:59:54.370Z,8.00
2022-09-28T06:02:26.569Z,8.00
2022-09-28T06:04:56.456Z,8.00
2022-09-28T06:07:26.604Z,8.00
2022-09-28T06:09:56.712Z,8.00
2022-09-28T06:12:27.174Z,8.00
2022-09-28T06:15:01.385Z,8.00
2022-09-28T06:17:32.804Z,8.10
2022-09-28T06:20:01.491Z,8.10
2022-09-28T06:22:31.381Z,8.20
2022-09-28T06:25:02.660Z,8.30
2022-09-28T06:27:32.609Z,8.40
2022-09-28T06:30:02.624Z,8.40
2022-09-28T06:32:33.973Z,8.30
2022-09-28T06:35:03.650Z,8.40
2022-09-28T06:37:33.635Z,8.50
2022-09-28T06:40:03.723Z,8.50
2022-09-28T06:42:33.600Z,8.60
2022-09-28T06:45:04.655Z,8.60
2022-09-28T06:47:36.278Z,8.70
2022-09-28T06:50:11.129Z,8.60
2022-09-28T06:52:41.324Z,8.60
2022-09-28T06:55:11.734Z,8.80
2022-09-28T06:57:41.678Z,8.90
2022-09-28T07:00:14.577Z,9.00
2022-09-28T07:02:46.192Z,9.00
2022-09-28T07:05:16.377Z,9.00
2022-09-28T07:07:46.769Z,9.00
2022-09-28T07:10:16.787Z,9.10
2022-09-28T07:12:47.538Z,9.10
2022-09-28T07:15:17.138Z,9.10
2022-09-28T07:17:59.860Z,9.10
2022-09-28T07:20:31.731Z,9.20
2022-09-28T07:23:14.399Z,9.20
2022-09-28T07:25:49.588Z,9.30
2022-09-28T07:28:20.490Z,9.30
2022-09-28T07:30:50.481Z,9.40
2022-09-28T07:33:21.512Z,9.50
2022-09-28T07:35:55.361Z,9.50
2022-09-28T07:38:26.107Z,9.80
2022-09-28T07:41:18.111Z,10.00
2022-09-28T07:43:48.371Z,10.00
2022-09-28T07:46:19.522Z,9.90
2022-09-28T07:48:52.189Z,10.00
2022-09-28T07:51:22.213Z,10.00
2022-09-28T07:53:54.203Z,10.20
2022-09-28T07:56:25.409Z,10.50
2022-09-28T07:58:55.667Z,10.50
2022-09-28T08:01:26.043Z,10.40
2022-09-28T08:04:00.378Z,10.40
2022-09-28T08:06:31.358Z,10.60
2022-09-28T08:09:01.839Z,10.30
2022-09-28T08:11:31.548Z,10.40
2022-09-28T08:14:02.903Z,10.20
2022-09-28T08:16:33.045Z,10.20
2022-09-28T08:19:04.612Z,10.20
2022-09-28T08:21:45.601Z,10.10
2022-09-28T08:24:16.437Z,10.10
2022-09-28T08:26:49.595Z,10.00
2022-09-28T08:29:19.607Z,10.00
2022-09-28T08:31:53.264Z,10.10
2022-09-28T08:34:25.472Z,10.20
2022-09-28T08:36:57.320Z,10.10
2022-09-28T08:39:27.693Z,10.30
2022-09-28T08:42:07.501Z,10.20
2022-09-28T08:44:46.386Z,10.30
2022-09-28T08:47:38.077Z,10.30
2022-09-28T08:50:15.147Z,10.40
2022-09-28T08:52:49.275Z,10.40
2022-09-28T08:55:27.581Z,10.10
2022-09-28T08:58:00.484Z,10.00
2022-09-28T09:00:39.464Z,10.20
2022-09-28T09:03:13.508Z,10.50
2022-09-28T09:05:56.098Z,10.80
2022-09-28T09:08:50.520Z,10.90
2022-09-28T09:11:30.631Z,11.20
2022-09-28T09:14:22.670Z,11.40
2022-09-28T09:17:02.089Z,11.60
2022-09-28T09:19:42.537Z,11.70
2022-09-28T09:22:24.022Z,11.80
2022-09-28T09:24:58.103Z,11.80
2022-09-28T09:27:42.793Z,11.70
2022-09-28T09:30:19.584Z,11.70
2022-09-28T09:33:25.771Z,11.60
2022-09-28T09:36:07.605Z,11.80
2022-09-28T09:39:00.087Z,12.00
2022-09-28T09:41:41.912Z,12.00
2022-09-28T09:44:29.410Z,12.00
2022-09-28T09:47:07.767Z,12.10
2022-09-28T09:49:44.694Z,12.00
2022-09-28T09:52:24.183Z,11.90
2022-09-28T09:55:00.496Z,11.80
2022-09-28T09:57:33.254Z,11.60
2022-09-28T10:00:05.888Z,11.50
2022-09-28T10:02:39.708Z,11.30
2022-09-28T10:05:18.195Z,11.20
2022-09-28T10:07:52.000Z,11.30
2022-09-28T10:10:26.059Z,11.30
2022-09-28T10:12:56.910Z,11.40
2022-09-28T10:15:29.562Z,11.60
2022-09-28T10:18:02.954Z,11.80
2022-09-28T10:20:38.565Z,11.80
2022-09-28T10:23:14.421Z,11.80
2022-09-28T10:25:47.753Z,11.80
2022-09-28T10:28:25.097Z,11.90
2022-09-28T10:30:55.269Z,11.80
2022-09-28T10:33:34.529Z,11.70
2022-09-28T10:36:11.369Z,11.80
2022-09-28T10:38:48.579Z,11.90
2022-09-28T10:41:22.705Z,12.10
2022-09-28T10:44:06.300Z,12.20
2022-09-28T10:46:39.522Z,12.20
2022-09-28T10:49:14.472Z,12.20
2022-09-28T10:51:46.744Z,12.30
2022-09-28T10:54:19.334Z,12.30
2022-09-28T10:56:50.162Z,12.10
2022-09-28T10:59:25.908Z,12.20
2022-09-28T11:01:58.902Z,12.00
2022-09-28T11:04:31.572Z,11.90
2022-09-28T11:07:02.493Z,11.70
2022-09-28T11:09:35.178Z,11.80
2022-09-28T11:12:15.456Z,11.90
2022-09-28T11:14:47.201Z,12.10
2022-09-28T11:17:25.732Z,12.20
2022-09-28T11:19:56.574Z,12.00
2022-09-28T11:22:29.020Z,12.00
2022-09-28T11:25:22.284Z,12.10
2022-09-28T11:28:04.946Z,12.30
2022-09-28T11:30:40.476Z,12.60
2022-09-28T11:33:20.625Z,12.80
2022-09-28T11:35:56.727Z,12.50
2022-09-28T11:38:40.816Z,12.70
2022-09-28T11:41:34.436Z,12.40
2022-09-28T11:44:29.451Z,12.60
2022-09-28T11:47:14.644Z,12.80
2022-09-28T11:49:49.696Z,12.90
2022-09-28T11:52:27.642Z,12.90
2022-09-28T11:55:00.789Z,12.80
2022-09-28T11:57:37.037Z,12.60
2022-09-28T12:00:13.441Z,12.80
2022-09-28T12:02:47.887Z,12.40
2022-09-28T12:05:22.477Z,12.10
2022-09-28T12:07:55.972Z,11.90
2022-09-28T12:10:36.967Z,11.60
2022-09-28T12:13:10.748Z,11.50
2022-09-28T12:16:17.104Z,11.50
2022-09-28T12:18:45.511Z,11.50
2022-09-28T12:21:29.241Z,11.80
2022-09-28T12:24:06.028Z,12.00
2022-09-28T12:26:43.349Z,12.00
2022-09-28T12:29:19.547Z,12.20
2022-09-28T12:31:59.621Z,12.40
2022-09-28T12:34:29.663Z,12.70
2022-09-28T12:37:30.722Z,12.70
2022-09-28T12:40:23.476Z,12.60
2022-09-28T12:43:25.355Z,12.60
2022-09-28T12:46:12.361Z,12.80
2022-09-28T12:51:57.699Z,12.50
2022-09-28T12:54:44.406Z,12.70
2022-09-28T12:57:32.376Z,12.80
2022-09-28T13:00:06.993Z,12.80
2022-09-28T13:03:02.497Z,12.50
2022-09-28T13:06:01.208Z,12.20
2022-09-28T13:08:37.367Z,11.70
2022-09-28T13:11:15.616Z,11.60
2022-09-28T13:13:54.278Z,11.50
2022-09-28T13:16:30.230Z,11.40
2022-09-28T13:19:05.979Z,11.60
2022-09-28T13:21:45.040Z,11.30
2022-09-28T13:24:32.316Z,11.30
2022-09-28T13:27:11.155Z,11.60
2022-09-28T13:29:43.042Z,11.50
2022-09-28T13:32:14.027Z,11.50
2022-09-28T13:34:48.606Z,11.50
2022-09-28T13:37:29.734Z,11.60
2022-09-28T13:40:00.064Z,11.80
2022-09-28T13:42:56.356Z,11.80
2022-09-28T13:45:50.146Z,11.90
2022-09-28T13:48:22.935Z,12.00
2022-09-28T13:51:23.231Z,12.10
2022-09-28T13:54:27.488Z,12.60
2022-09-28T13:57:04.378Z,12.90
2022-09-28T13:59:46.329Z,13.00
2022-09-28T14:02:25.540Z,13.10
2022-09-28T14:04:58.433Z,13.10
2022-09-28T14:07:48.222Z,13.00
2022-09-28T14:10:25.938Z,13.10
2022-09-28T14:12:56.026Z,13.10
2022-09-28T14:15:45.431Z,13.10
2022-09-28T14:18:25.594Z,13.10
2022-09-28T14:21:07.470Z,13.20
2022-09-28T14:24:09.952Z,13.20
2022-09-28T14:27:24.742Z,13.00
2022-09-28T14:30:07.885Z,13.00
2022-09-28T14:32:39.894Z,12.90
2022-09-28T14:35:19.731Z,12.90
2022-09-28T14:38:11.534Z,12.80
2022-09-28T14:41:12.644Z,12.70
2022-09-28T14:44:02.504Z,12.60
2022-09-28T14:46:44.766Z,12.50
2022-09-28T14:49:45.015Z,12.00
2022-09-28T14:52:19.548Z,11.80
2022-09-28T14:54:55.315Z,12.00
2022-09-28T14:57:30.260Z,12.10
2022-09-28T15:00:08.642Z,12.20
2022-09-28T15:02:49.054Z,11.90
2022-09-28T15:05:24.136Z,12.10
2022-09-28T15:07:56.412Z,12.30
2022-09-28T15:10:31.395Z,12.60
2022-09-28T15:13:05.316Z,12.70
2022-09-28T15:15:38.760Z,13.00
2022-09-28T15:18:20.576Z,12.90
2022-09-28T15:20:51.482Z,12.60
2022-09-28T15:23:28.290Z,12.60
2022-09-28T15:26:04.017Z,12.70
2022-09-28T15:28:34.850Z,12.60
2022-09-28T15:31:07.245Z,12.30
2022-09-28T15:33:59.556Z,12.00
2022-09-28T15:36:32.171Z,11.80
2022-09-28T15:39:04.674Z,11.60
2022-09-28T15:41:35.138Z,11.50
2022-09-28T15:44:23.503Z,11.40
2022-09-28T15:47:07.465Z,11.40
2022-09-28T15:49:41.194Z,11.30
2022-09-28T15:52:27.656Z,11.20
2022-09-28T15:54:58.931Z,11.10
2022-09-28T15:57:36.872Z,11.00
2022-09-28T16:00:07.434Z,11.00
2022-09-28T16:02:39.258Z,11.00
2022-09-28T16:05:35.986Z,10.80
2022-09-28T16:08:09.760Z,10.70
2022-09-28T16:10:51.950Z,10.60
2022-09-28T16:13:25.175Z,10.60
2022-09-28T16:16:01.002Z,10.70
2022-09-28T16:18:41.659Z,10.50
2022-09-28T16:21:31.649Z,10.50
2022-09-28T16:24:08.524Z,10.40
2022-09-28T16:26:39.221Z,10.30
2022-09-28T16:29:26.191Z,10.30
2022-09-28T16:31:56.316Z,10.30
2022-09-28T16:34:30.884Z,10.20
2022-09-28T16:37:00.751Z,10.10
2022-09-28T16:39:30.802Z,10.00
2022-09-28T16:42:05.013Z,10.00
2022-09-28T16:44:35.820Z,9.90
2022-09-28T16:47:08.147Z,9.90
2022-09-28T16:49:42.691Z,9.90
2022-09-28T16:52:13.043Z,9.80
2022-09-28T16:55:00.341Z,9.80
2022-09-28T16:57:33.201Z,9.90
2022-09-28T17:00:05.766Z,9.80
2022-09-28T17:02:46.199Z,9.70
2022-09-28T17:05:19.471Z,9.60
2022-09-28T17:07:49.321Z,9.50
2022-09-28T17:10:31.964Z,9.40
2022-09-28T17:13:12.372Z,9.40
2022-09-28T17:15:42.071Z,9.40
2022-09-28T17:18:14.916Z,9.40
2022-09-28T17:20:49.730Z,9.40
2022-09-28T17:23:21.091Z,9.40
2022-09-28T17:25:54.561Z,9.40
2022-09-28T17:28:28.018Z,9.40
2022-09-28T17:31:01.285Z,9.40
2022-09-28T17:33:31.508Z,9.40
2022-09-28T17:36:05.406Z,9.30
2022-09-28T17:38:36.835Z,9.30
2022-09-28T17:41:07.037Z,9.20
2022-09-28T17:43:39.732Z,9.20
2022-09-28T17:46:16.808Z,9.20
2022-09-28T17:48:47.433Z,9.10
2022-09-28T17:51:24.938Z,9.10
2022-09-28T17:53:56.996Z,9.10
2022-09-28T17:56:31.136Z,9.00
2022-09-28T17:59:03.780Z,8.90
2022-09-28T18:01:42.776Z,9.00
2022-09-28T18:04:33.172Z,8.90
2022-09-28T18:07:05.002Z,8.90
2022-09-28T18:09:37.997Z,8.90
2022-09-28T18:12:13.031Z,9.00
2022-09-28T18:14:42.942Z,9.00
2022-09-28T18:17:20.273Z,9.10
2022-09-28T18:19:51.877Z,9.10
2022-09-28T18:22:27.212Z,9.10
2022-09-28T18:25:00.770Z,9.00
2022-09-28T18:27:31.667Z,9.00
2022-09-28T18:30:03.577Z,8.80
2022-09-28T18:32:34.631Z,8.70
2022-09-28T18:35:10.204Z,8.60
2022-09-28T18:37:46.983Z,8.70
2022-09-28T18:40:17.303Z,8.70
2022-09-28T18:42:45.578Z,8.70
2022-09-28T18:45:17.683Z,8.70
2022-09-28T18:47:47.760Z,8.70
2022-09-28T18:50:20.188Z,8.70
2022-09-28T18:52:52.324Z,8.70
2022-09-28T18:55:22.319Z,8.70
2022-09-28T18:57:52.446Z,8.70
2022-09-28T19:00:22.362Z,8.70
2022-09-28T19:02:54.736Z,8.70
2022-09-28T19:05:24.938Z,8.70
2022-09-28T19:07:56.585Z,8.80
2022-09-28T19:10:26.324Z,8.90
2022-09-28T19:12:56.116Z,8.80
2022-09-28T19:15:27.000Z,8.70
2022-09-28T19:17:58.041Z,8.60
2022-09-28T19:20:28.107Z,8.40
2022-09-28T19:23:02.540Z,8.30
2022-09-28T19:25:32.367Z,8.30
2022-09-28T19:28:02.423Z,8.20
2022-09-28T19:30:32.270Z,8.20
2022-09-28T19:33:03.028Z,8.20
2022-09-28T19:35:33.245Z,8.20
2022-09-28T19:38:05.117Z,8.20
2022-09-28T19:40:37.771Z,8.30
2022-09-28T19:43:07.686Z,8.30
2022-09-28T19:45:40.216Z,8.30
2022-09-28T19:48:09.975Z,8.50
2022-09-28T19:50:39.932Z,8.50
2022-09-28T19:53:11.580Z,8.40
2022-09-28T19:55:44.764Z,8.40
2022-09-28T19:58:16.575Z,8.30
2022-09-28T20:00:46.313Z,8.40
2022-09-28T20:03:16.389Z,8.40
2022-09-28T20:05:46.401Z,8.30
2022-09-28T20:08:19.145Z,8.30
2022-09-28T20:10:53.495Z,8.50
2022-09-28T20:13:24.821Z,8.50
2022-09-28T20:15:53.107Z,8.60
2022-09-28T20:18:23.323Z,8.60
2022-09-28T20:21:03.175Z,8.50
2022-09-28T20:23:38.235Z,8.50
2022-09-28T20:26:10.451Z,8.50
2022-09-28T20:28:40.779Z,8.50
2022-09-28T20:31:13.940Z,8.50
2022-09-28T20:33:44.494Z,8.50
2022-09-28T20:36:16.582Z,8.30
2022-09-28T20:38:50.499Z,8.30
2022-09-28T20:41:23.992Z,8.40
2022-09-28T20:43:56.471Z,8.50
2022-09-28T20:46:26.834Z,8.60
2022-09-28T20:48:58.126Z,8.60
2022-09-28T20:51:28.057Z,8.70
2022-09-28T20:54:01.146Z,8.80
2022-09-28T20:56:37.719Z,8.80
2022-09-28T20:59:08.467Z,8.80
2022-09-28T21:01:38.965Z,8.80
2022-09-28T21:04:10.921Z,8.70
2022-09-28T21:06:42.658Z,8.60
2022-09-28T21:09:14.791Z,8.60
2022-09-28T21:11:44.835Z,8.50
2022-09-28T21:14:18.031Z,8.60
2022-09-28T21:16:47.918Z,8.60
2022-09-28T21:19:17.717Z,8.60
2022-09-28T21:21:47.619Z,8.60
2022-09-28T21:24:19.015Z,8.70
2022-09-28T21:26:49.163Z,8.70
2022-09-28T21:29:19.301Z,8.70
2022-09-28T21:31:49.880Z,8.60
2022-09-28T21:34:22.126Z,8.60
2022-09-28T21:36:53.343Z,8.60
2022-09-28T21:39:24.387Z,8.60
2022-09-28T21:41:54.268Z,8.60
2022-09-28T21:44:22.486Z,8.70
2022-09-28T21:46:52.200Z,8.70
2022-09-28T21:49:22.311Z,8.80
2022-09-28T21:51:52.518Z,8.70
2022-09-28T21:54:21.996Z,8.70
2022-09-28T21:56:52.617Z,8.60
2022-09-28T21:59:23.019Z,8.60
2022-09-28T22:01:52.750Z,8.70
2022-09-28T22:04:22.829Z,8.70
2022-09-28T22:06:52.597Z,8.70
2022-09-28T22:09:21.857Z,8.70
2022-09-28T22:11:52.294Z,8.60
2022-09-28T22:14:22.324Z,8.60
2022-09-28T22:16:52.197Z,8.60
2022-09-28T22:19:20.906Z,8.60
2022-09-28T22:21:50.591Z,8.70
2022-09-28T22:24:20.762Z,8.70
2022-09-28T22:26:51.948Z,8.60
2022-09-28T22:29:22.310Z,8.40
2022-09-28T22:31:52.116Z,8.30
2022-09-28T22:34:24.473Z,8.40
2022-09-28T22:36:54.376Z,8.30
2022-09-28T22:39:26.662Z,8.20
2022-09-28T22:41:57.905Z,8.10
2022-09-28T22:44:28.419Z,8.10
2022-09-28T22:46:58.385Z,8.00
2022-09-28T22:49:28.179Z,8.10
2022-09-28T22:52:00.223Z,8.00
2022-09-28T22:54:30.383Z,8.00
2022-09-28T22:57:01.788Z,8.10
2022-09-28T22:59:31.503Z,8.10
2022-09-28T23:02:02.102Z,8.20
2022-09-28T23:04:32.089Z,8.10
2022-09-28T23:07:05.881Z,8.10
2022-09-28T23:09:39.805Z,8.10
2022-09-28T23:12:11.288Z,8.10
2022-09-28T23:14:41.454Z,8.00
2022-09-28T23:17:11.198Z,8.00
2022-09-28T23:19:40.902Z,7.90
2022-09-28T23:22:10.968Z,8.00
2022-09-28T23:24:42.458Z,8.00
2022-09-28T23:27:13.616Z,8.10
2022-09-28T23:29:46.769Z,8.10
2022-09-28T23:32:17.532Z,8.00
2022-09-28T23:34:47.560Z,7.90
2022-09-28T23:37:17.323Z,7.80
2022-09-28T23:39:47.220Z,7.80
2022-09-28T23:42:18.619Z,7.60
2022-09-28T23:44:48.530Z,7.60
2022-09-28T23:47:18.663Z,7.60
2022-09-28T23:49:48.676Z,7.60
2022-09-28T23:52:18.863Z,7.60
2022-09-28T23:54:48.679Z,7.40
2022-09-28T23:57:21.108Z,7.40
2022-09-28T23:59:50.842Z,7.30
